METAR Data

Data at: 1741 UTC 21 Nov 2018

METAR for:KFMH (Otis ANGB, MA, US)
Text:KFMH 211735Z 24018G26KT 10SM SCT034 06/M01 A2992 RMK AO2
Temperature: 6.0°C ( 43°F)
Dewpoint: -1.0°C ( 30°F) [RH = 61%]
Pressure (altimeter):29.92 inches Hg (1013.3 mb)
Winds:from the WSW (240 degrees) at 21 MPH (18 knots; 9.3 m/s) gusting to 30 MPH (26 knots; 13.4 m/s)
Visibility:10 or more sm (16+ km)
Ceiling:at least 12,000 feet AGL
Clouds: scattered clouds at 3400 feet AGL